Terminal Aerodrome Forecast
Issued by NWS Newport/Morehead City, NC

Home | Current Version | Previous Version | Text Only | Print | Product List | Glossary On
Versions: 1 2 3 4 5 6 7 8 9 10 11 12 13 14 15
000
FTUS42 KMHX 022321
TAFEWN
TAF
KEWN 022321Z 0300/0324 21009KT P6SM FEW050 FEW070
     FM030200 21006KT 3SM TSRA BKN025CB
     FM030600 22008KT P6SM VCSH BKN050
     FM031600 23012G20KT P6SM VCTS BKN035CB=

USA.gov is the U.S. government's official web portal to all federal, state and local government web resources and services.